Terminal Aerodrome Forecast
Issued by NWS

Home | Current Version | Previous Version | Text Only | Print | Product List | Glossary On
Versions: 1 2 3 4 5 6 7 8 9 10 11 12 13 14 15 16 17 18 19 20 21
000
FTUS43 KEAX 221722
TAFMKC
TAF
KMKC 221722Z 2218/2318 25006KT P6SM VCSH OVC090
     FM222100 26006KT P6SM -SHRA VCTS OVC090CB
     FM222300 23004KT P6SM VCSH BKN100
     FM231100 32005KT P6SM BKN020=

USA.gov is the U.S. government's official web portal to all federal, state and local government web resources and services.